createdAt,value
2023-02-19T00:01:47.669Z,97836.40
2023-02-19T00:04:20.045Z,97832.00
2023-02-19T00:06:48.197Z,97829.60
2023-02-19T00:09:17.210Z,97829.60
2023-02-19T00:11:44.654Z,97828.60
2023-02-19T00:14:16.253Z,97833.60
2023-02-19T00:16:43.482Z,97835.20
2023-02-19T00:19:14.405Z,97838.00
2023-02-19T00:21:41.730Z,97841.60
2023-02-19T00:24:12.288Z,97841.00
2023-02-19T00:26:44.246Z,97841.00
2023-02-19T00:29:22.796Z,97834.00
2023-02-19T00:31:50.545Z,97841.60
2023-02-19T00:34:18.284Z,97843.80
2023-02-19T00:36:45.279Z,97839.00
2023-02-19T00:39:15.851Z,97839.20
2023-02-19T00:41:43.729Z,97839.60
2023-02-19T00:44:12.005Z,97842.80
2023-02-19T00:46:44.380Z,97844.60
2023-02-19T00:49:22.810Z,97846.00
2023-02-19T00:51:52.300Z,97844.40
2023-02-19T00:54:20.266Z,97846.20
2023-02-19T00:56:47.475Z,97845.00
2023-02-19T00:59:14.977Z,97838.80
2023-02-19T01:01:44.837Z,97837.20
2023-02-19T01:04:12.495Z,97839.00
2023-02-19T01:06:39.679Z,97827.80
2023-02-19T01:09:07.911Z,97829.40
2023-02-19T01:11:35.641Z,97832.00
2023-02-19T01:14:06.002Z,97821.40
2023-02-19T01:16:33.142Z,97817.20
2023-02-19T01:19:00.373Z,97814.40
2023-02-19T01:21:29.449Z,97811.60
2023-02-19T01:23:57.833Z,97800.20
2023-02-19T01:26:29.923Z,97801.80
2023-02-19T01:28:57.629Z,97801.20
2023-02-19T01:31:25.344Z,97801.20
2023-02-19T01:33:55.431Z,97791.80
2023-02-19T01:36:23.007Z,97787.80
2023-02-19T01:38:49.883Z,97788.20
2023-02-19T01:41:21.181Z,97786.00
2023-02-19T01:44:28.275Z,97781.20
2023-02-19T01:46:57.773Z,97776.20
2023-02-19T01:49:29.326Z,97773.60
2023-02-19T01:52:05.182Z,97773.80
2023-02-19T01:54:37.669Z,97777.20
2023-02-19T01:57:08.675Z,97771.80
2023-02-19T01:59:35.968Z,97768.60
2023-02-19T02:02:03.222Z,97771.20
2023-02-19T02:04:32.928Z,97766.00
2023-02-19T02:07:03.366Z,97765.40
2023-02-19T02:09:50.455Z,97757.40
2023-02-19T02:12:17.426Z,97750.80
2023-02-19T02:14:48.388Z,97748.60
2023-02-19T02:17:18.193Z,97757.60
2023-02-19T02:20:19.094Z,97754.40
2023-02-19T02:22:54.088Z,97750.00
2023-02-19T02:25:34.183Z,97753.00
2023-02-19T02:28:20.582Z,97746.80
2023-02-19T02:30:53.228Z,97743.60
2023-02-19T02:33:41.788Z,97736.80
2023-02-19T02:36:27.318Z,97742.80
2023-02-19T02:38:57.042Z,97736.80
2023-02-19T02:41:28.045Z,97730.60
2023-02-19T02:43:55.324Z,97731.60
2023-02-19T02:46:30.778Z,97728.00
2023-02-19T02:49:03.853Z,97733.20
2023-02-19T02:51:38.148Z,97724.80
2023-02-19T02:54:37.229Z,97726.60
2023-02-19T02:57:09.527Z,97717.60
2023-02-19T02:59:41.773Z,97719.60
2023-02-19T03:02:19.214Z,97721.20
2023-02-19T03:05:19.392Z,97722.60
2023-02-19T03:08:14.816Z,97720.60
2023-02-19T03:10:45.979Z,97723.20
2023-02-19T03:13:41.383Z,97728.00
2023-02-19T03:16:31.939Z,97727.20
2023-02-19T03:19:18.629Z,97727.40
2023-02-19T03:22:20.427Z,97722.00
2023-02-19T03:25:15.356Z,97722.60
2023-02-19T03:27:44.551Z,97727.60
2023-02-19T03:30:20.219Z,97716.80
2023-02-19T03:32:58.392Z,97714.40
2023-02-19T03:35:32.020Z,97714.60
2023-02-19T03:38:04.197Z,97715.00
2023-02-19T03:40:37.785Z,97715.60
2023-02-19T03:43:20.204Z,97714.40
2023-02-19T03:46:10.824Z,97706.80
2023-02-19T03:49:04.024Z,97704.40
2023-02-19T03:51:39.343Z,97700.60
2023-02-19T03:54:25.760Z,97702.00
2023-02-19T03:57:06.662Z,97696.00
2023-02-19T03:59:42.078Z,97691.40
2023-02-19T04:02:12.027Z,97700.80
2023-02-19T04:04:55.084Z,97694.40
2023-02-19T04:07:23.983Z,97687.80
2023-02-19T04:09:52.322Z,97686.40
2023-02-19T04:12:21.416Z,97686.60
2023-02-19T04:14:52.009Z,97683.40
2023-02-19T04:17:29.750Z,97681.60
2023-02-19T04:19:59.113Z,97688.00
2023-02-19T04:22:26.979Z,97685.80
2023-02-19T04:24:55.713Z,97690.20
2023-02-19T04:27:22.636Z,97688.00
2023-02-19T04:29:49.552Z,97685.20
2023-02-19T04:32:16.447Z,97678.40
2023-02-19T04:34:43.278Z,97681.00
2023-02-19T04:37:10.772Z,97678.40
2023-02-19T04:39:38.018Z,97677.60
2023-02-19T04:42:05.246Z,97679.40
2023-02-19T04:44:34.621Z,97674.00
2023-02-19T04:47:04.342Z,97662.00
2023-02-19T04:49:31.488Z,97657.60
2023-02-19T04:51:58.657Z,97655.40
2023-02-19T04:54:25.751Z,97652.20
2023-02-19T04:56:53.002Z,97662.40
2023-02-19T04:59:20.152Z,97663.20
2023-02-19T05:01:47.286Z,97645.60
2023-02-19T05:04:14.450Z,97651.40
2023-02-19T05:06:41.410Z,97643.80
2023-02-19T05:09:09.076Z,97636.80
2023-02-19T05:11:37.045Z,97636.80
2023-02-19T05:14:04.180Z,97635.60
2023-02-19T05:16:31.244Z,97634.00
2023-02-19T05:18:58.214Z,97632.80
2023-02-19T05:21:25.345Z,97628.60
2023-02-19T05:23:52.157Z,97619.00
2023-02-19T05:26:21.841Z,97608.20
2023-02-19T05:28:51.034Z,97602.80
2023-02-19T05:31:18.983Z,97606.20
2023-02-19T05:33:50.511Z,97604.80
2023-02-19T05:36:19.190Z,97608.40
2023-02-19T05:38:46.830Z,97606.00
2023-02-19T05:41:31.947Z,97610.20
2023-02-19T05:43:59.423Z,97602.40
2023-02-19T05:46:29.900Z,97604.40
2023-02-19T05:48:58.453Z,97598.00
2023-02-19T05:51:27.676Z,97596.00
2023-02-19T05:53:56.547Z,97596.40
2023-02-19T05:56:26.372Z,97604.20
2023-02-19T05:58:54.517Z,97606.60
2023-02-19T06:01:24.671Z,97611.00
2023-02-19T06:03:51.742Z,97613.80
2023-02-19T06:06:20.080Z,97610.20
2023-02-19T06:08:52.719Z,97611.20
2023-02-19T06:11:21.050Z,97610.60
2023-02-19T06:13:50.425Z,97612.80
2023-02-19T06:16:18.509Z,97624.00
2023-02-19T06:18:46.319Z,97628.20
2023-02-19T06:21:14.266Z,97635.80
2023-02-19T06:23:41.601Z,97646.40
2023-02-19T06:26:16.219Z,97661.20
2023-02-19T06:28:44.285Z,97655.60
2023-02-19T06:31:12.445Z,97664.60
2023-02-19T06:33:43.206Z,97660.80
2023-02-19T06:36:16.497Z,97664.20
2023-02-19T06:38:43.764Z,97667.00
2023-02-19T06:41:12.584Z,97666.60
2023-02-19T06:43:40.212Z,97669.40
2023-02-19T06:46:08.072Z,97669.80
2023-02-19T06:48:35.945Z,97657.00
2023-02-19T06:51:03.604Z,97647.00
2023-02-19T06:53:30.602Z,97661.00
2023-02-19T06:56:03.753Z,97671.20
2023-02-19T06:58:31.497Z,97675.00
2023-02-19T07:00:58.921Z,97682.40
2023-02-19T07:03:26.928Z,97665.60
2023-02-19T07:05:54.331Z,97675.40
2023-02-19T07:08:21.438Z,97671.80
2023-02-19T07:10:56.624Z,97684.20
2023-02-19T07:13:26.819Z,97681.80
2023-02-19T07:16:05.228Z,97670.60
2023-02-19T07:18:32.406Z,97664.80
2023-02-19T07:21:04.684Z,97675.40
2023-02-19T07:23:31.906Z,97677.80
2023-02-19T07:25:59.327Z,97677.60
2023-02-19T07:28:26.777Z,97677.40
2023-02-19T07:30:54.382Z,97667.60
2023-02-19T07:33:21.274Z,97676.80
2023-02-19T07:35:49.559Z,97676.00
2023-02-19T07:38:17.843Z,97672.80
2023-02-19T07:40:55.588Z,97666.00
2023-02-19T07:43:24.374Z,97667.00
2023-02-19T07:45:52.965Z,97674.40
2023-02-19T07:48:20.875Z,97670.00
2023-02-19T07:50:55.749Z,97668.00
2023-02-19T07:53:24.387Z,97676.60
2023-02-19T07:55:51.472Z,97671.40
2023-02-19T07:58:18.789Z,97672.60
2023-02-19T08:00:46.283Z,97680.80
2023-02-19T08:03:13.397Z,97684.80
2023-02-19T08:05:42.865Z,97688.00
2023-02-19T08:08:15.274Z,97683.80
2023-02-19T08:11:01.572Z,97685.60
2023-02-19T08:13:31.002Z,97681.60
2023-02-19T08:16:16.318Z,97694.60
2023-02-19T08:18:45.006Z,97690.80
2023-02-19T08:21:13.193Z,97705.00
2023-02-19T08:23:40.728Z,97701.60
2023-02-19T08:26:08.840Z,97704.80
2023-02-19T08:28:36.406Z,97708.00
2023-02-19T08:31:07.492Z,97706.40
2023-02-19T08:33:35.425Z,97703.40
2023-02-19T08:36:07.173Z,97712.80
2023-02-19T08:38:36.490Z,97710.00
2023-02-19T08:41:09.818Z,97696.20
2023-02-19T08:43:37.212Z,97703.40
2023-02-19T08:46:04.901Z,97717.20
2023-02-19T08:48:31.919Z,97705.20
2023-02-19T08:51:03.700Z,97715.40
2023-02-19T08:53:32.282Z,97721.20
2023-02-19T08:56:00.025Z,97716.60
2023-02-19T08:58:27.212Z,97735.40
2023-02-19T09:00:54.378Z,97734.40
2023-02-19T09:03:21.390Z,97730.80
2023-02-19T09:05:48.449Z,97724.40
2023-02-19T09:08:16.048Z,97708.40
2023-02-19T09:10:43.121Z,97727.20
2023-02-19T09:13:10.066Z,97717.20
2023-02-19T09:15:38.907Z,97718.80
2023-02-19T09:18:05.978Z,97725.60
2023-02-19T09:20:32.949Z,97726.20
2023-02-19T09:23:00.304Z,97736.20
2023-02-19T09:25:27.253Z,97737.20
2023-02-19T09:27:57.477Z,97757.80
2023-02-19T09:30:24.553Z,97764.20
2023-02-19T09:32:51.467Z,97775.40
2023-02-19T09:35:18.518Z,97787.40
2023-02-19T09:37:45.904Z,97797.60
2023-02-19T09:40:13.528Z,97844.20
2023-02-19T09:42:42.989Z,97829.00
2023-02-19T09:45:21.410Z,97848.80
2023-02-19T09:47:49.108Z,97848.40
2023-02-19T09:50:23.178Z,97840.60
2023-02-19T09:53:03.445Z,97848.20
2023-02-19T09:55:40.903Z,97848.60
2023-02-19T09:58:18.778Z,97842.60
2023-02-19T10:00:49.214Z,97850.80
2023-02-19T10:03:40.859Z,97850.40
2023-02-19T10:06:20.577Z,97858.40
2023-02-19T10:08:50.798Z,97857.40
2023-02-19T10:11:19.424Z,97854.40
2023-02-19T10:13:52.555Z,97862.20
2023-02-19T10:16:26.329Z,97870.80
2023-02-19T10:18:53.712Z,97868.80
2023-02-19T10:21:28.156Z,97873.00
2023-02-19T10:24:01.669Z,97871.20
2023-02-19T10:26:31.930Z,97878.80
2023-02-19T10:28:58.769Z,97882.00
2023-02-19T10:31:26.182Z,97886.60
2023-02-19T10:33:55.555Z,97890.20
2023-02-19T10:36:45.381Z,97889.80
2023-02-19T10:39:42.391Z,97885.00
2023-02-19T10:42:21.342Z,97891.20
2023-02-19T10:44:58.458Z,97883.80
2023-02-19T10:47:27.267Z,97883.80
2023-02-19T10:49:57.898Z,97881.80
2023-02-19T10:52:28.933Z,97882.80
2023-02-19T10:55:15.867Z,97885.80
2023-02-19T10:57:43.271Z,97885.40
2023-02-19T11:00:16.111Z,97881.00
2023-02-19T11:02:44.462Z,97884.60
2023-02-19T11:05:18.109Z,97874.40
2023-02-19T11:07:46.925Z,97876.40
2023-02-19T11:10:39.213Z,97877.60
2023-02-19T11:13:07.830Z,97877.20
2023-02-19T11:15:37.276Z,97880.60
2023-02-19T11:18:07.090Z,97886.40
2023-02-19T11:20:34.272Z,97876.40
2023-02-19T11:23:12.687Z,97876.00
2023-02-19T11:25:46.592Z,97863.20
2023-02-19T11:28:30.184Z,97866.20
2023-02-19T11:31:14.968Z,97872.80
2023-02-19T11:34:04.555Z,97877.60
2023-02-19T11:36:33.246Z,97872.40
2023-02-19T11:39:16.118Z,97867.00
2023-02-19T11:41:55.095Z,97856.20
2023-02-19T11:44:58.671Z,97853.20
2023-02-19T11:47:40.297Z,97848.00
2023-02-19T11:50:16.148Z,97847.60
2023-02-19T11:53:00.203Z,97844.80
2023-02-19T11:56:05.718Z,97844.20
2023-02-19T11:59:07.797Z,97847.00
2023-02-19T12:01:52.840Z,97847.00
2023-02-19T12:04:42.038Z,97837.00
2023-02-19T12:07:52.313Z,97825.40
2023-02-19T12:10:22.208Z,97823.80
2023-02-19T12:12:55.684Z,97820.60
2023-02-19T12:15:41.459Z,97818.20
2023-02-19T12:18:17.752Z,97820.20
2023-02-19T12:21:16.799Z,97822.20
2023-02-19T12:23:56.033Z,97817.20
2023-02-19T12:26:50.470Z,97821.20
2023-02-19T12:29:36.111Z,97823.20
2023-02-19T12:32:27.971Z,97818.60
2023-02-19T12:35:32.817Z,97824.00
2023-02-19T12:38:18.454Z,97821.80
2023-02-19T12:41:01.117Z,97811.00
2023-02-19T12:43:30.705Z,97811.80
2023-02-19T12:46:33.514Z,97824.40
2023-02-19T12:49:36.258Z,97831.20
2023-02-19T12:52:23.708Z,97827.00
2023-02-19T12:54:56.340Z,97853.00
2023-02-19T12:57:27.360Z,97858.60
2023-02-19T13:00:03.118Z,97844.20
2023-02-19T13:02:45.396Z,97840.00
2023-02-19T13:05:43.469Z,97844.40
2023-02-19T13:08:16.402Z,97863.80
2023-02-19T13:10:46.030Z,97845.00
2023-02-19T13:13:23.926Z,97844.00
2023-02-19T13:15:57.305Z,97851.40
2023-02-19T13:18:35.976Z,97861.80
2023-02-19T13:21:06.428Z,97858.00
2023-02-19T13:23:51.859Z,97855.20
2023-02-19T13:26:56.930Z,97865.00
2023-02-19T13:29:34.718Z,97861.40
2023-02-19T13:32:31.622Z,97859.20
2023-02-19T13:35:15.697Z,97861.40
2023-02-19T13:37:43.679Z,97864.80
2023-02-19T13:40:28.137Z,97853.00
2023-02-19T13:42:57.481Z,97845.20
2023-02-19T13:45:36.229Z,97843.00
2023-02-19T13:48:14.666Z,97852.00
2023-02-19T13:50:42.168Z,97855.80
2023-02-19T13:53:43.010Z,97847.40
2023-02-19T13:56:35.096Z,97861.80
2023-02-19T13:59:11.266Z,97857.40
2023-02-19T14:01:53.200Z,97860.20
2023-02-19T14:04:32.231Z,97863.20
2023-02-19T14:07:05.700Z,97860.80
2023-02-19T14:09:41.639Z,97860.40
2023-02-19T14:12:15.016Z,97854.40
2023-02-19T14:14:43.696Z,97861.20
2023-02-19T14:17:12.484Z,97860.40
2023-02-19T14:19:42.354Z,97879.40
2023-02-19T14:22:52.945Z,97890.40
2023-02-19T14:25:30.673Z,97894.20
2023-02-19T14:28:22.654Z,97892.80
2023-02-19T14:31:10.597Z,97904.80
2023-02-19T14:33:43.919Z,97910.40
2023-02-19T14:36:19.788Z,97902.00
2023-02-19T14:39:07.431Z,97906.40
2023-02-19T14:41:39.104Z,97904.00
2023-02-19T14:44:14.938Z,97904.20
2023-02-19T14:46:52.058Z,97912.20
2023-02-19T14:49:42.678Z,97908.20
2023-02-19T14:52:36.728Z,97899.80
2023-02-19T14:55:09.069Z,97903.20
2023-02-19T14:57:48.137Z,97900.80
2023-02-19T15:00:23.338Z,97900.60
2023-02-19T15:02:52.706Z,97891.00
2023-02-19T15:05:25.603Z,97894.80
2023-02-19T15:07:59.057Z,97895.40
2023-02-19T15:10:28.921Z,97891.80
2023-02-19T15:13:07.442Z,97885.00
2023-02-19T15:15:37.820Z,97889.20
2023-02-19T15:18:05.848Z,97893.60
2023-02-19T15:20:35.973Z,97899.40
2023-02-19T15:23:06.546Z,97901.20
2023-02-19T15:25:37.024Z,97907.20
2023-02-19T15:28:26.229Z,97906.20
2023-02-19T15:30:59.262Z,97915.20
2023-02-19T15:33:28.109Z,97925.00
2023-02-19T15:35:59.620Z,97919.20
2023-02-19T15:38:27.082Z,97925.60
2023-02-19T15:40:57.404Z,97928.40
2023-02-19T15:43:50.791Z,97924.60
2023-02-19T15:46:22.039Z,97922.80
2023-02-19T15:49:05.643Z,97929.40
2023-02-19T15:51:59.739Z,97936.60
2023-02-19T15:54:29.105Z,97935.20
2023-02-19T15:57:01.000Z,97928.00
2023-02-19T15:59:33.914Z,97926.80
2023-02-19T16:02:03.970Z,97927.40
2023-02-19T16:04:31.269Z,97930.60
2023-02-19T16:07:01.289Z,97931.60
2023-02-19T16:09:38.277Z,97936.40
2023-02-19T16:12:21.458Z,97929.40
2023-02-19T16:14:51.178Z,97935.00
2023-02-19T16:17:27.901Z,97943.60
2023-02-19T16:19:57.999Z,97948.00
2023-02-19T16:22:29.235Z,97965.60
2023-02-19T16:25:05.636Z,97978.80
2023-02-19T16:27:37.035Z,97987.60
2023-02-19T16:30:09.093Z,97997.40
2023-02-19T16:32:36.346Z,98000.00
2023-02-19T16:35:03.599Z,98016.60
2023-02-19T16:37:34.988Z,98027.20
2023-02-19T16:40:07.987Z,98036.40
2023-02-19T16:42:58.269Z,98045.80
2023-02-19T16:45:27.413Z,98043.80
2023-02-19T16:47:54.782Z,98046.80
2023-02-19T16:50:29.201Z,98049.20
2023-02-19T16:52:58.937Z,98049.40
2023-02-19T16:55:27.696Z,98055.40
2023-02-19T16:57:54.960Z,98058.40
2023-02-19T17:00:25.445Z,98057.00
2023-02-19T17:02:57.157Z,98064.00
2023-02-19T17:05:27.904Z,98068.20
2023-02-19T17:07:55.422Z,98065.40
2023-02-19T17:10:26.307Z,98069.20
2023-02-19T17:12:55.852Z,98063.60
2023-02-19T17:15:23.434Z,98066.40
2023-02-19T17:17:51.763Z,98068.60
2023-02-19T17:20:26.535Z,98066.80
2023-02-19T17:22:54.907Z,98063.80
2023-02-19T17:25:22.444Z,98068.20
2023-02-19T17:27:50.253Z,98066.40
2023-02-19T17:30:33.726Z,98054.60
2023-02-19T17:33:04.473Z,98059.20
2023-02-19T17:35:43.650Z,98062.80
2023-02-19T17:38:13.725Z,98051.20
2023-02-19T17:40:54.975Z,98061.60
2023-02-19T17:43:28.093Z,98060.20
2023-02-19T17:46:05.230Z,98082.60
2023-02-19T17:48:32.651Z,98083.00
2023-02-19T17:51:02.257Z,98082.00
2023-02-19T17:53:29.409Z,98087.00
2023-02-19T17:55:56.362Z,98088.80
2023-02-19T17:58:23.400Z,98098.00
2023-02-19T18:00:53.957Z,98109.60
2023-02-19T18:03:24.026Z,98117.60
2023-02-19T18:05:51.352Z,98117.80
2023-02-19T18:08:18.646Z,98123.60
2023-02-19T18:10:45.709Z,98137.20
2023-02-19T18:13:13.488Z,98144.20
2023-02-19T18:15:40.517Z,98151.40
2023-02-19T18:18:09.874Z,98151.60
2023-02-19T18:20:37.277Z,98157.80
2023-02-19T18:23:07.611Z,98163.80
2023-02-19T18:25:34.765Z,98170.20
2023-02-19T18:28:01.826Z,98178.60
2023-02-19T18:30:30.060Z,98189.60
2023-02-19T18:32:57.863Z,98183.40
2023-02-19T18:35:26.006Z,98183.60
2023-02-19T18:37:54.189Z,98180.40
2023-02-19T18:40:22.671Z,98189.20
2023-02-19T18:42:49.822Z,98187.80
2023-02-19T18:45:17.070Z,98185.00
2023-02-19T18:47:52.988Z,98193.00
2023-02-19T18:50:20.605Z,98194.80
2023-02-19T18:52:48.033Z,98201.00
2023-02-19T18:55:17.689Z,98205.40
2023-02-19T18:57:46.766Z,98210.20
2023-02-19T19:00:23.705Z,98208.20
2023-02-19T19:02:59.709Z,98209.40
2023-02-19T19:05:30.590Z,98209.20
2023-02-19T19:07:59.607Z,98211.80
2023-02-19T19:10:27.490Z,98214.60
2023-02-19T19:12:54.829Z,98224.80
2023-02-19T19:15:22.764Z,98228.40
2023-02-19T19:17:50.066Z,98232.20
2023-02-19T19:20:19.834Z,98228.60
2023-02-19T19:22:50.162Z,98233.80
2023-02-19T19:25:17.984Z,98240.80
2023-02-19T19:27:46.050Z,98236.80
2023-02-19T19:30:13.897Z,98244.00
2023-02-19T19:32:41.036Z,98238.60
2023-02-19T19:35:08.495Z,98247.40
2023-02-19T19:37:35.536Z,98252.20
2023-02-19T19:40:04.028Z,98255.80
2023-02-19T19:42:30.942Z,98260.80
2023-02-19T19:44:58.027Z,98259.60
2023-02-19T19:47:25.010Z,98267.60
2023-02-19T19:49:51.946Z,98274.60
2023-02-19T19:52:19.132Z,98284.20
2023-02-19T19:54:47.642Z,98299.60
2023-02-19T19:57:16.456Z,98297.80
2023-02-19T19:59:43.533Z,98305.00
2023-02-19T20:02:11.334Z,98317.20
2023-02-19T20:04:38.090Z,98298.60
2023-02-19T20:07:05.082Z,98303.60
2023-02-19T20:09:32.068Z,98310.60
2023-02-19T20:11:59.418Z,98310.60
2023-02-19T20:14:26.992Z,98311.20
2023-02-19T20:16:55.974Z,98315.40
2023-02-19T20:19:23.956Z,98323.60
2023-02-19T20:21:53.716Z,98313.80
2023-02-19T20:24:25.992Z,98307.20
2023-02-19T20:27:02.061Z,98300.40
2023-02-19T20:29:31.686Z,98296.20
2023-02-19T20:32:03.903Z,98303.40
2023-02-19T20:34:31.392Z,98317.20
2023-02-19T20:36:59.314Z,98312.40
2023-02-19T20:39:29.273Z,98312.20
2023-02-19T20:41:57.762Z,98310.60
2023-02-19T20:44:25.911Z,98317.20
2023-02-19T20:46:53.663Z,98313.40
2023-02-19T20:49:23.522Z,98322.80
2023-02-19T20:51:54.806Z,98321.60
2023-02-19T20:54:26.565Z,98327.60
2023-02-19T20:56:55.973Z,98332.40
2023-02-19T20:59:30.831Z,98332.80
2023-02-19T21:02:02.041Z,98334.00
2023-02-19T21:04:29.034Z,98327.60
2023-02-19T21:06:56.830Z,98328.20
2023-02-19T21:09:24.357Z,98334.40
2023-02-19T21:11:51.961Z,98333.00
2023-02-19T21:14:20.278Z,98330.00
2023-02-19T21:16:47.666Z,98318.60
2023-02-19T21:19:15.018Z,98326.80
2023-02-19T21:21:42.336Z,98328.00
2023-02-19T21:24:10.584Z,98332.40
2023-02-19T21:26:39.781Z,98335.00
2023-02-19T21:29:10.815Z,98334.00
2023-02-19T21:31:40.234Z,98335.80
2023-02-19T21:34:08.980Z,98332.20
2023-02-19T21:36:37.033Z,98333.20
2023-02-19T21:39:06.241Z,98330.80
2023-02-19T21:41:33.642Z,98328.60
2023-02-19T21:44:00.676Z,98329.40
2023-02-19T21:46:27.754Z,98327.20
2023-02-19T21:48:56.400Z,98321.20
2023-02-19T21:51:33.060Z,98312.80
2023-02-19T21:54:00.505Z,98316.80
2023-02-19T21:56:30.364Z,98318.40
2023-02-19T21:58:57.915Z,98317.40
2023-02-19T22:01:30.733Z,98318.20
2023-02-19T22:03:58.211Z,98323.00
2023-02-19T22:06:29.028Z,98330.60
2023-02-19T22:08:56.844Z,98331.60
2023-02-19T22:11:24.122Z,98332.00
2023-02-19T22:13:51.821Z,98335.00
2023-02-19T22:16:19.238Z,98336.60
2023-02-19T22:18:54.630Z,98341.20
2023-02-19T22:21:23.820Z,98340.00
2023-02-19T22:23:52.405Z,98350.60
2023-02-19T22:26:34.308Z,98354.80
2023-02-19T22:29:08.055Z,98355.40
2023-02-19T22:31:38.398Z,98363.60
2023-02-19T22:34:05.875Z,98363.40
2023-02-19T22:36:40.583Z,98362.40
2023-02-19T22:39:16.736Z,98368.00
2023-02-19T22:41:43.925Z,98370.80
2023-02-19T22:44:11.587Z,98367.60
2023-02-19T22:46:38.696Z,98374.20
2023-02-19T22:49:06.768Z,98374.60
2023-02-19T22:51:35.666Z,98374.20
2023-02-19T22:54:02.821Z,98373.80
2023-02-19T22:56:30.320Z,98364.80
2023-02-19T22:58:59.308Z,98370.80
2023-02-19T23:01:26.621Z,98378.00
2023-02-19T23:03:56.101Z,98386.40
2023-02-19T23:06:30.818Z,98389.80
2023-02-19T23:09:02.145Z,98402.00
2023-02-19T23:11:32.047Z,98394.00
2023-02-19T23:13:59.339Z,98395.60
2023-02-19T23:16:27.505Z,98396.40
2023-02-19T23:18:55.135Z,98394.20
2023-02-19T23:21:24.329Z,98402.60
2023-02-19T23:23:51.488Z,98404.80
2023-02-19T23:26:18.978Z,98408.60
2023-02-19T23:28:47.257Z,98412.20
2023-02-19T23:31:18.728Z,98412.40
2023-02-19T23:33:49.091Z,98403.40
2023-02-19T23:36:16.364Z,98395.20
2023-02-19T23:38:47.047Z,98400.60
2023-02-19T23:41:16.438Z,98403.80
2023-02-19T23:43:43.902Z,98408.40
2023-02-19T23:46:18.154Z,98409.20
2023-02-19T23:48:46.282Z,98414.40
2023-02-19T23:51:14.111Z,98414.60
2023-02-19T23:53:41.310Z,98415.60
2023-02-19T23:56:08.897Z,98407.20
2023-02-19T23:58:35.883Z,98401.80
